sensor_id;sensor_type;location;lat;lon;timestamp;P1;durP1;ratioP1;P2;durP2;ratioP2
12968;SDS011;6549;53.128;8.182;2023-01-15T00:01:20;5.35;;;1.13;;
12968;SDS011;6549;53.128;8.182;2023-01-15T00:04:28;4.88;;;1.30;;
12968;SDS011;6549;53.128;8.182;2023-01-15T00:07:29;5.50;;;1.30;;
12968;SDS011;6549;53.128;8.182;2023-01-15T00:10:30;5.50;;;1.65;;
12968;SDS011;6549;53.128;8.182;2023-01-15T00:13:30;8.38;;;1.73;;
12968;SDS011;6549;53.128;8.182;2023-01-15T00:16:31;6.80;;;1.25;;
12968;SDS011;6549;53.128;8.182;2023-01-15T00:19:31;4.45;;;1.20;;
12968;SDS011;6549;53.128;8.182;2023-01-15T00:22:31;4.13;;;1.17;;
12968;SDS011;6549;53.128;8.182;2023-01-15T00:25:32;6.60;;;1.45;;
12968;SDS011;6549;53.128;8.182;2023-01-15T00:28:50;5.78;;;1.65;;
12968;SDS011;6549;53.128;8.182;2023-01-15T00:31:53;7.32;;;1.30;;
12968;SDS011;6549;53.128;8.182;2023-01-15T00:34:59;4.97;;;1.10;;
12968;SDS011;6549;53.128;8.182;2023-01-15T00:38:00;3.25;;;1.13;;
12968;SDS011;6549;53.128;8.182;2023-01-15T00:41:00;7.25;;;1.42;;
12968;SDS011;6549;53.128;8.182;2023-01-15T00:44:00;6.38;;;1.58;;
12968;SDS011;6549;53.128;8.182;2023-01-15T00:47:01;8.52;;;1.38;;
12968;SDS011;6549;53.128;8.182;2023-01-15T00:50:01;3.35;;;1.17;;
12968;SDS011;6549;53.128;8.182;2023-01-15T00:53:02;5.82;;;1.27;;
12968;SDS011;6549;53.128;8.182;2023-01-15T00:56:03;3.38;;;1.30;;
12968;SDS011;6549;53.128;8.182;2023-01-15T00:59:04;6.07;;;1.30;;
12968;SDS011;6549;53.128;8.182;2023-01-15T01:02:04;4.50;;;1.27;;
12968;SDS011;6549;53.128;8.182;2023-01-15T01:05:05;6.65;;;1.40;;
12968;SDS011;6549;53.128;8.182;2023-01-15T01:08:05;4.85;;;1.33;;
12968;SDS011;6549;53.128;8.182;2023-01-15T01:11:07;2.97;;;1.30;;
12968;SDS011;6549;53.128;8.182;2023-01-15T01:17:09;6.95;;;1.55;;
12968;SDS011;6549;53.128;8.182;2023-01-15T01:20:11;5.35;;;1.30;;
12968;SDS011;6549;53.128;8.182;2023-01-15T01:23:13;4.95;;;1.23;;
12968;SDS011;6549;53.128;8.182;2023-01-15T01:26:13;4.25;;;1.15;;
12968;SDS011;6549;53.128;8.182;2023-01-15T01:29:20;7.30;;;1.27;;
12968;SDS011;6549;53.128;8.182;2023-01-15T01:32:21;7.72;;;1.52;;
12968;SDS011;6549;53.128;8.182;2023-01-15T01:35:21;9.02;;;1.33;;
12968;SDS011;6549;53.128;8.182;2023-01-15T01:38:22;8.25;;;1.30;;
12968;SDS011;6549;53.128;8.182;2023-01-15T01:41:22;4.85;;;1.23;;
12968;SDS011;6549;53.128;8.182;2023-01-15T01:47:32;7.15;;;1.35;;
12968;SDS011;6549;53.128;8.182;2023-01-15T01:50:33;5.97;;;1.38;;
12968;SDS011;6549;53.128;8.182;2023-01-15T01:53:36;8.25;;;1.45;;
12968;SDS011;6549;53.128;8.182;2023-01-15T01:56:37;7.18;;;1.42;;
12968;SDS011;6549;53.128;8.182;2023-01-15T01:59:38;8.90;;;1.70;;
12968;SDS011;6549;53.128;8.182;2023-01-15T02:02:40;6.85;;;1.58;;
12968;SDS011;6549;53.128;8.182;2023-01-15T02:05:45;4.45;;;1.02;;
12968;SDS011;6549;53.128;8.182;2023-01-15T02:08:50;4.50;;;1.10;;
12968;SDS011;6549;53.128;8.182;2023-01-15T02:11:51;7.18;;;1.60;;
12968;SDS011;6549;53.128;8.182;2023-01-15T02:22:00;7.95;;;1.92;;
12968;SDS011;6549;53.128;8.182;2023-01-15T02:25:10;7.13;;;1.77;;
12968;SDS011;6549;53.128;8.182;2023-01-15T02:28:22;5.47;;;1.27;;
12968;SDS011;6549;53.128;8.182;2023-01-15T02:31:30;6.95;;;1.30;;
12968;SDS011;6549;53.128;8.182;2023-01-15T02:34:35;8.88;;;1.52;;
12968;SDS011;6549;53.128;8.182;2023-01-15T02:37:45;5.28;;;1.38;;
12968;SDS011;6549;53.128;8.182;2023-01-15T02:40:51;7.30;;;1.42;;
12968;SDS011;6549;53.128;8.182;2023-01-15T02:43:54;7.35;;;1.20;;
12968;SDS011;6549;53.128;8.182;2023-01-15T02:46:56;7.38;;;1.63;;
12968;SDS011;6549;53.128;8.182;2023-01-15T02:49:59;7.50;;;1.67;;
12968;SDS011;6549;53.128;8.182;2023-01-15T02:53:06;10.50;;;1.65;;
12968;SDS011;6549;53.128;8.182;2023-01-15T02:56:11;7.32;;;1.30;;
12968;SDS011;6549;53.128;8.182;2023-01-15T02:59:21;7.60;;;1.33;;
12968;SDS011;6549;53.128;8.182;2023-01-15T03:02:31;9.00;;;1.55;;
12968;SDS011;6549;53.128;8.182;2023-01-15T03:05:38;8.90;;;1.38;;
12968;SDS011;6549;53.128;8.182;2023-01-15T03:08:41;7.50;;;1.40;;
12968;SDS011;6549;53.128;8.182;2023-01-15T03:11:51;5.78;;;1.48;;
12968;SDS011;6549;53.128;8.182;2023-01-15T03:15:15;5.47;;;1.23;;
12968;SDS011;6549;53.128;8.182;2023-01-15T03:18:43;6.93;;;1.40;;
12968;SDS011;6549;53.128;8.182;2023-01-15T03:25:09;6.90;;;1.60;;
12968;SDS011;6549;53.128;8.182;2023-01-15T03:28:10;9.23;;;1.63;;
12968;SDS011;6549;53.128;8.182;2023-01-15T03:31:13;6.47;;;1.52;;
12968;SDS011;6549;53.128;8.182;2023-01-15T03:34:14;8.55;;;1.50;;
12968;SDS011;6549;53.128;8.182;2023-01-15T03:37:14;7.93;;;1.48;;
12968;SDS011;6549;53.128;8.182;2023-01-15T03:40:16;5.55;;;1.27;;
12968;SDS011;6549;53.128;8.182;2023-01-15T03:43:16;8.35;;;1.95;;
12968;SDS011;6549;53.128;8.182;2023-01-15T03:50:08;11.57;;;1.63;;
12968;SDS011;6549;53.128;8.182;2023-01-15T03:53:21;9.60;;;1.67;;
12968;SDS011;6549;53.128;8.182;2023-01-15T03:59:37;14.75;;;1.60;;
12968;SDS011;6549;53.128;8.182;2023-01-15T04:02:43;9.70;;;1.63;;
12968;SDS011;6549;53.128;8.182;2023-01-15T04:05:46;6.13;;;1.40;;
12968;SDS011;6549;53.128;8.182;2023-01-15T04:08:49;11.38;;;1.50;;
12968;SDS011;6549;53.128;8.182;2023-01-15T04:11:49;11.02;;;1.90;;
12968;SDS011;6549;53.128;8.182;2023-01-15T04:14:50;14.07;;;1.90;;
12968;SDS011;6549;53.128;8.182;2023-01-15T04:17:50;7.78;;;1.80;;
12968;SDS011;6549;53.128;8.182;2023-01-15T04:20:50;7.05;;;1.50;;
12968;SDS011;6549;53.128;8.182;2023-01-15T04:23:51;11.75;;;1.80;;
12968;SDS011;6549;53.128;8.182;2023-01-15T04:26:51;6.70;;;1.30;;
12968;SDS011;6549;53.128;8.182;2023-01-15T04:29:51;9.32;;;1.67;;
12968;SDS011;6549;53.128;8.182;2023-01-15T04:32:52;9.77;;;1.67;;
12968;SDS011;6549;53.128;8.182;2023-01-15T04:35:52;9.05;;;1.30;;
12968;SDS011;6549;53.128;8.182;2023-01-15T04:38:52;7.30;;;1.33;;
12968;SDS011;6549;53.128;8.182;2023-01-15T04:41:53;8.85;;;1.38;;
12968;SDS011;6549;53.128;8.182;2023-01-15T04:45:12;6.88;;;1.58;;
12968;SDS011;6549;53.128;8.182;2023-01-15T04:48:13;10.70;;;2.03;;
12968;SDS011;6549;53.128;8.182;2023-01-15T04:51:14;8.68;;;2.05;;
12968;SDS011;6549;53.128;8.182;2023-01-15T04:54:15;8.57;;;1.80;;
12968;SDS011;6549;53.128;8.182;2023-01-15T04:57:15;11.43;;;2.03;;
12968;SDS011;6549;53.128;8.182;2023-01-15T05:00:16;9.90;;;1.50;;
12968;SDS011;6549;53.128;8.182;2023-01-15T05:03:17;10.77;;;1.92;;
12968;SDS011;6549;53.128;8.182;2023-01-15T05:06:17;9.25;;;1.52;;
12968;SDS011;6549;53.128;8.182;2023-01-15T05:09:17;8.75;;;1.63;;
12968;SDS011;6549;53.128;8.182;2023-01-15T05:12:18;12.93;;;1.88;;
12968;SDS011;6549;53.128;8.182;2023-01-15T05:15:18;7.13;;;1.35;;
12968;SDS011;6549;53.128;8.182;2023-01-15T05:18:18;9.30;;;2.17;;
12968;SDS011;6549;53.128;8.182;2023-01-15T05:21:20;12.25;;;1.85;;
12968;SDS011;6549;53.128;8.182;2023-01-15T05:24:22;10.80;;;1.77;;
12968;SDS011;6549;53.128;8.182;2023-01-15T05:27:23;10.52;;;1.45;;
12968;SDS011;6549;53.128;8.182;2023-01-15T05:30:23;13.00;;;1.80;;
12968;SDS011;6549;53.128;8.182;2023-01-15T05:33:23;8.02;;;1.58;;
12968;SDS011;6549;53.128;8.182;2023-01-15T05:36:25;11.02;;;1.70;;
12968;SDS011;6549;53.128;8.182;2023-01-15T05:39:27;8.73;;;1.50;;
12968;SDS011;6549;53.128;8.182;2023-01-15T05:42:27;13.75;;;1.85;;
12968;SDS011;6549;53.128;8.182;2023-01-15T05:45:27;8.60;;;1.52;;
12968;SDS011;6549;53.128;8.182;2023-01-15T05:48:28;9.80;;;1.60;;
12968;SDS011;6549;53.128;8.182;2023-01-15T05:51:28;10.55;;;1.63;;
12968;SDS011;6549;53.128;8.182;2023-01-15T05:54:30;7.57;;;1.27;;
12968;SDS011;6549;53.128;8.182;2023-01-15T05:57:34;7.43;;;1.55;;
12968;SDS011;6549;53.128;8.182;2023-01-15T06:00:34;13.80;;;2.20;;
12968;SDS011;6549;53.128;8.182;2023-01-15T06:03:35;10.82;;;1.67;;
12968;SDS011;6549;53.128;8.182;2023-01-15T06:06:36;9.25;;;2.10;;
12968;SDS011;6549;53.128;8.182;2023-01-15T06:09:36;6.50;;;1.20;;
12968;SDS011;6549;53.128;8.182;2023-01-15T06:12:36;6.90;;;1.80;;
12968;SDS011;6549;53.128;8.182;2023-01-15T06:15:37;7.22;;;1.55;;
12968;SDS011;6549;53.128;8.182;2023-01-15T06:18:38;11.35;;;1.60;;
12968;SDS011;6549;53.128;8.182;2023-01-15T06:21:39;9.55;;;1.80;;
12968;SDS011;6549;53.128;8.182;2023-01-15T06:24:39;7.05;;;1.52;;
12968;SDS011;6549;53.128;8.182;2023-01-15T06:27:40;9.88;;;1.88;;
12968;SDS011;6549;53.128;8.182;2023-01-15T06:30:43;8.82;;;1.30;;
12968;SDS011;6549;53.128;8.182;2023-01-15T06:33:43;9.85;;;1.55;;
12968;SDS011;6549;53.128;8.182;2023-01-15T06:36:44;8.73;;;1.95;;
12968;SDS011;6549;53.128;8.182;2023-01-15T06:39:44;10.85;;;1.55;;
12968;SDS011;6549;53.128;8.182;2023-01-15T06:42:44;6.57;;;1.40;;
12968;SDS011;6549;53.128;8.182;2023-01-15T06:46:03;6.18;;;1.42;;
12968;SDS011;6549;53.128;8.182;2023-01-15T06:49:23;10.57;;;1.67;;
12968;SDS011;6549;53.128;8.182;2023-01-15T06:52:24;7.65;;;1.58;;
12968;SDS011;6549;53.128;8.182;2023-01-15T06:55:25;7.88;;;1.63;;
12968;SDS011;6549;53.128;8.182;2023-01-15T06:58:26;7.60;;;1.27;;
12968;SDS011;6549;53.128;8.182;2023-01-15T07:01:26;9.07;;;1.65;;
12968;SDS011;6549;53.128;8.182;2023-01-15T07:04:29;9.10;;;1.75;;
12968;SDS011;6549;53.128;8.182;2023-01-15T07:07:31;7.40;;;1.52;;
12968;SDS011;6549;53.128;8.182;2023-01-15T07:10:32;11.23;;;1.65;;
12968;SDS011;6549;53.128;8.182;2023-01-15T07:16:35;8.88;;;1.58;;
12968;SDS011;6549;53.128;8.182;2023-01-15T07:19:36;9.20;;;1.33;;
12968;SDS011;6549;53.128;8.182;2023-01-15T07:22:37;13.73;;;1.38;;
12968;SDS011;6549;53.128;8.182;2023-01-15T07:25:37;6.82;;;1.30;;
12968;SDS011;6549;53.128;8.182;2023-01-15T07:28:37;9.68;;;1.40;;
12968;SDS011;6549;53.128;8.182;2023-01-15T07:31:38;12.73;;;2.00;;
12968;SDS011;6549;53.128;8.182;2023-01-15T07:34:38;8.45;;;1.67;;
12968;SDS011;6549;53.128;8.182;2023-01-15T07:37:38;7.53;;;1.38;;
12968;SDS011;6549;53.128;8.182;2023-01-15T07:40:39;9.18;;;1.60;;
12968;SDS011;6549;53.128;8.182;2023-01-15T07:43:39;12.68;;;2.00;;
12968;SDS011;6549;53.128;8.182;2023-01-15T07:46:58;10.13;;;1.80;;
12968;SDS011;6549;53.128;8.182;2023-01-15T07:50:17;7.13;;;1.60;;
12968;SDS011;6549;53.128;8.182;2023-01-15T07:53:20;8.82;;;1.60;;
12968;SDS011;6549;53.128;8.182;2023-01-15T07:56:20;7.50;;;1.80;;
12968;SDS011;6549;53.128;8.182;2023-01-15T07:59:20;8.30;;;1.70;;
12968;SDS011;6549;53.128;8.182;2023-01-15T08:02:21;6.88;;;2.33;;
12968;SDS011;6549;53.128;8.182;2023-01-15T08:05:21;12.38;;;1.77;;
12968;SDS011;6549;53.128;8.182;2023-01-15T08:08:21;5.95;;;1.83;;
12968;SDS011;6549;53.128;8.182;2023-01-15T08:11:21;5.90;;;1.50;;
12968;SDS011;6549;53.128;8.182;2023-01-15T08:14:40;8.35;;;1.50;;
12968;SDS011;6549;53.128;8.182;2023-01-15T08:17:59;10.80;;;1.50;;
12968;SDS011;6549;53.128;8.182;2023-01-15T08:20:59;7.28;;;1.60;;
12968;SDS011;6549;53.128;8.182;2023-01-15T08:24:00;9.35;;;1.67;;
12968;SDS011;6549;53.128;8.182;2023-01-15T08:27:00;8.13;;;1.70;;
12968;SDS011;6549;53.128;8.182;2023-01-15T08:30:00;10.15;;;1.77;;
12968;SDS011;6549;53.128;8.182;2023-01-15T08:33:01;8.20;;;1.63;;
12968;SDS011;6549;53.128;8.182;2023-01-15T08:36:02;5.35;;;1.80;;
12968;SDS011;6549;53.128;8.182;2023-01-15T08:39:02;8.18;;;2.42;;
12968;SDS011;6549;53.128;8.182;2023-01-15T08:42:03;5.43;;;1.63;;
12968;SDS011;6549;53.128;8.182;2023-01-15T08:45:04;4.25;;;1.20;;
12968;SDS011;6549;53.128;8.182;2023-01-15T08:48:05;9.25;;;1.35;;
12968;SDS011;6549;53.128;8.182;2023-01-15T08:51:05;4.93;;;1.45;;
12968;SDS011;6549;53.128;8.182;2023-01-15T08:54:07;10.30;;;1.80;;
12968;SDS011;6549;53.128;8.182;2023-01-15T08:57:08;10.65;;;1.70;;
12968;SDS011;6549;53.128;8.182;2023-01-15T09:00:11;8.35;;;2.25;;
12968;SDS011;6549;53.128;8.182;2023-01-15T09:03:11;7.43;;;1.80;;
12968;SDS011;6549;53.128;8.182;2023-01-15T09:06:12;6.25;;;1.80;;
12968;SDS011;6549;53.128;8.182;2023-01-15T09:09:12;11.90;;;2.08;;
12968;SDS011;6549;53.128;8.182;2023-01-15T09:12:13;12.27;;;1.60;;
12968;SDS011;6549;53.128;8.182;2023-01-15T09:15:14;7.70;;;1.65;;
12968;SDS011;6549;53.128;8.182;2023-01-15T09:18:15;7.30;;;2.13;;
12968;SDS011;6549;53.128;8.182;2023-01-15T09:21:18;6.78;;;1.80;;
12968;SDS011;6549;53.128;8.182;2023-01-15T09:24:19;7.82;;;1.80;;
12968;SDS011;6549;53.128;8.182;2023-01-15T09:27:19;8.45;;;1.88;;
12968;SDS011;6549;53.128;8.182;2023-01-15T09:30:20;7.55;;;2.33;;
12968;SDS011;6549;53.128;8.182;2023-01-15T09:33:21;6.95;;;1.30;;
12968;SDS011;6549;53.128;8.182;2023-01-15T09:36:25;7.40;;;1.77;;
12968;SDS011;6549;53.128;8.182;2023-01-15T09:39:27;9.20;;;1.52;;
12968;SDS011;6549;53.128;8.182;2023-01-15T09:45:37;4.95;;;1.45;;
12968;SDS011;6549;53.128;8.182;2023-01-15T09:55:14;7.07;;;1.45;;
12968;SDS011;6549;53.128;8.182;2023-01-15T09:58:19;8.85;;;1.63;;
12968;SDS011;6549;53.128;8.182;2023-01-15T10:01:26;6.82;;;1.70;;
12968;SDS011;6549;53.128;8.182;2023-01-15T10:04:40;7.32;;;1.38;;
12968;SDS011;6549;53.128;8.182;2023-01-15T10:11:20;8.73;;;1.93;;
12968;SDS011;6549;53.128;8.182;2023-01-15T10:18:19;4.25;;;1.00;;
12968;SDS011;6549;53.128;8.182;2023-01-15T10:24:28;0.80;;;0.57;;
12968;SDS011;6549;53.128;8.182;2023-01-15T10:27:36;3.58;;;0.68;;
12968;SDS011;6549;53.128;8.182;2023-01-15T10:33:48;1.05;;;0.70;;
12968;SDS011;6549;53.128;8.182;2023-01-15T10:40:24;0.93;;;0.60;;
12968;SDS011;6549;53.128;8.182;2023-01-15T10:47:13;0.70;;;0.50;;
12968;SDS011;6549;53.128;8.182;2023-01-15T10:50:19;1.55;;;0.60;;
12968;SDS011;6549;53.128;8.182;2023-01-15T10:53:37;3.00;;;0.68;;
12968;SDS011;6549;53.128;8.182;2023-01-15T10:56:47;1.90;;;0.73;;
12968;SDS011;6549;53.128;8.182;2023-01-15T11:00:00;2.28;;;0.52;;
12968;SDS011;6549;53.128;8.182;2023-01-15T11:03:02;1.88;;;0.77;;
12968;SDS011;6549;53.128;8.182;2023-01-15T11:06:14;2.63;;;1.00;;
12968;SDS011;6549;53.128;8.182;2023-01-15T11:09:20;3.08;;;0.90;;
12968;SDS011;6549;53.128;8.182;2023-01-15T11:12:24;5.50;;;1.05;;
12968;SDS011;6549;53.128;8.182;2023-01-15T11:15:47;6.25;;;1.20;;
12968;SDS011;6549;53.128;8.182;2023-01-15T11:19:09;4.50;;;1.45;;
12968;SDS011;6549;53.128;8.182;2023-01-15T11:22:37;5.80;;;1.10;;
12968;SDS011;6549;53.128;8.182;2023-01-15T11:25:38;3.63;;;1.10;;
12968;SDS011;6549;53.128;8.182;2023-01-15T11:28:47;3.97;;;1.00;;
12968;SDS011;6549;53.128;8.182;2023-01-15T11:31:48;4.30;;;1.27;;
12968;SDS011;6549;53.128;8.182;2023-01-15T11:34:56;5.57;;;1.50;;
12968;SDS011;6549;53.128;8.182;2023-01-15T11:38:04;6.00;;;1.00;;
12968;SDS011;6549;53.128;8.182;2023-01-15T11:41:15;3.92;;;1.42;;
12968;SDS011;6549;53.128;8.182;2023-01-15T11:44:54;6.00;;;1.48;;
12968;SDS011;6549;53.128;8.182;2023-01-15T11:48:15;5.68;;;1.60;;
12968;SDS011;6549;53.128;8.182;2023-01-15T11:51:45;6.05;;;1.70;;
12968;SDS011;6549;53.128;8.182;2023-01-15T11:54:48;8.15;;;1.85;;
12968;SDS011;6549;53.128;8.182;2023-01-15T11:57:52;4.65;;;1.40;;
12968;SDS011;6549;53.128;8.182;2023-01-15T12:00:53;7.13;;;1.90;;
12968;SDS011;6549;53.128;8.182;2023-01-15T12:03:57;6.80;;;1.95;;
12968;SDS011;6549;53.128;8.182;2023-01-15T12:06:59;8.65;;;1.63;;
12968;SDS011;6549;53.128;8.182;2023-01-15T12:16:36;7.20;;;1.73;;
12968;SDS011;6549;53.128;8.182;2023-01-15T12:29:37;7.00;;;1.70;;
12968;SDS011;6549;53.128;8.182;2023-01-15T12:36:18;5.50;;;1.70;;
12968;SDS011;6549;53.128;8.182;2023-01-15T12:39:23;7.72;;;1.60;;
12968;SDS011;6549;53.128;8.182;2023-01-15T12:42:29;6.85;;;1.63;;
12968;SDS011;6549;53.128;8.182;2023-01-15T12:45:50;10.52;;;1.77;;
12968;SDS011;6549;53.128;8.182;2023-01-15T12:48:58;6.60;;;1.65;;
12968;SDS011;6549;53.128;8.182;2023-01-15T12:52:09;10.05;;;1.52;;
12968;SDS011;6549;53.128;8.182;2023-01-15T12:55:18;9.65;;;2.15;;
12968;SDS011;6549;53.128;8.182;2023-01-15T13:02:03;6.30;;;1.70;;
12968;SDS011;6549;53.128;8.182;2023-01-15T13:05:29;7.47;;;1.90;;
12968;SDS011;6549;53.128;8.182;2023-01-15T13:08:39;6.53;;;1.55;;
12968;SDS011;6549;53.128;8.182;2023-01-15T13:11:45;10.27;;;1.90;;
12968;SDS011;6549;53.128;8.182;2023-01-15T13:14:45;10.30;;;2.28;;
12968;SDS011;6549;53.128;8.182;2023-01-15T13:21:12;7.63;;;1.73;;
12968;SDS011;6549;53.128;8.182;2023-01-15T13:24:18;8.50;;;2.28;;
12968;SDS011;6549;53.128;8.182;2023-01-15T13:37:49;8.25;;;2.58;;
12968;SDS011;6549;53.128;8.182;2023-01-15T13:40:54;7.07;;;1.90;;
12968;SDS011;6549;53.128;8.182;2023-01-15T13:47:00;6.93;;;2.00;;
12968;SDS011;6549;53.128;8.182;2023-01-15T13:50:06;7.20;;;1.88;;
12968;SDS011;6549;53.128;8.182;2023-01-15T13:53:27;9.30;;;1.83;;
12968;SDS011;6549;53.128;8.182;2023-01-15T13:56:31;6.18;;;1.30;;
12968;SDS011;6549;53.128;8.182;2023-01-15T13:59:42;7.15;;;1.67;;
12968;SDS011;6549;53.128;8.182;2023-01-15T14:02:50;8.07;;;2.10;;
12968;SDS011;6549;53.128;8.182;2023-01-15T14:05:53;7.82;;;1.33;;
12968;SDS011;6549;53.128;8.182;2023-01-15T14:08:54;6.63;;;1.70;;
12968;SDS011;6549;53.128;8.182;2023-01-15T14:19:27;7.28;;;1.77;;
12968;SDS011;6549;53.128;8.182;2023-01-15T14:28:59;6.65;;;1.52;;
12968;SDS011;6549;53.128;8.182;2023-01-15T14:35:44;5.85;;;1.70;;
12968;SDS011;6549;53.128;8.182;2023-01-15T14:38:47;5.90;;;1.75;;
12968;SDS011;6549;53.128;8.182;2023-01-15T14:41:59;4.55;;;1.90;;
12968;SDS011;6549;53.128;8.182;2023-01-15T14:51:27;7.13;;;1.93;;
12968;SDS011;6549;53.128;8.182;2023-01-15T14:54:31;8.38;;;1.90;;
12968;SDS011;6549;53.128;8.182;2023-01-15T14:57:32;6.43;;;1.75;;
12968;SDS011;6549;53.128;8.182;2023-01-15T15:00:34;8.32;;;1.85;;
12968;SDS011;6549;53.128;8.182;2023-01-15T15:03:39;5.25;;;1.83;;
12968;SDS011;6549;53.128;8.182;2023-01-15T15:06:52;9.10;;;2.90;;
12968;SDS011;6549;53.128;8.182;2023-01-15T15:16:31;4.47;;;1.08;;
12968;SDS011;6549;53.128;8.182;2023-01-15T15:19:41;2.15;;;0.93;;
12968;SDS011;6549;53.128;8.182;2023-01-15T15:22:48;2.28;;;0.70;;
12968;SDS011;6549;53.128;8.182;2023-01-15T15:26:00;1.40;;;0.80;;
12968;SDS011;6549;53.128;8.182;2023-01-15T15:32:19;2.17;;;1.17;;
12968;SDS011;6549;53.128;8.182;2023-01-15T15:35:26;2.08;;;1.13;;
12968;SDS011;6549;53.128;8.182;2023-01-15T15:38:28;2.08;;;1.05;;
12968;SDS011;6549;53.128;8.182;2023-01-15T15:41:29;2.05;;;1.10;;
12968;SDS011;6549;53.128;8.182;2023-01-15T15:44:53;3.13;;;1.40;;
12968;SDS011;6549;53.128;8.182;2023-01-15T15:48:20;2.67;;;1.48;;
12968;SDS011;6549;53.128;8.182;2023-01-15T15:51:51;3.35;;;1.70;;
12968;SDS011;6549;53.128;8.182;2023-01-15T15:54:56;2.17;;;1.45;;
12968;SDS011;6549;53.128;8.182;2023-01-15T15:58:00;5.95;;;3.75;;
12968;SDS011;6549;53.128;8.182;2023-01-15T16:01:02;2.03;;;1.40;;
12968;SDS011;6549;53.128;8.182;2023-01-15T16:04:02;3.35;;;1.45;;
12968;SDS011;6549;53.128;8.182;2023-01-15T16:07:19;3.33;;;1.95;;
12968;SDS011;6549;53.128;8.182;2023-01-15T16:10:29;4.50;;;1.67;;
12968;SDS011;6549;53.128;8.182;2023-01-15T16:13:33;3.15;;;1.63;;
12968;SDS011;6549;53.128;8.182;2023-01-15T16:16:51;5.40;;;1.52;;
12968;SDS011;6549;53.128;8.182;2023-01-15T16:19:53;3.50;;;1.42;;
12968;SDS011;6549;53.128;8.182;2023-01-15T16:29:04;5.82;;;1.80;;
12968;SDS011;6549;53.128;8.182;2023-01-15T16:32:12;4.25;;;1.45;;
12968;SDS011;6549;53.128;8.182;2023-01-15T16:38:21;1.52;;;1.10;;
12968;SDS011;6549;53.128;8.182;2023-01-15T16:41:26;4.80;;;1.50;;
12968;SDS011;6549;53.128;8.182;2023-01-15T16:44:38;5.68;;;1.30;;
12968;SDS011;6549;53.128;8.182;2023-01-15T16:48:29;3.03;;;1.20;;
12968;SDS011;6549;53.128;8.182;2023-01-15T16:57:30;6.00;;;1.42;;
12968;SDS011;6549;53.128;8.182;2023-01-15T17:00:32;6.80;;;1.73;;
12968;SDS011;6549;53.128;8.182;2023-01-15T17:03:32;5.93;;;1.67;;
12968;SDS011;6549;53.128;8.182;2023-01-15T17:06:33;4.13;;;1.50;;
12968;SDS011;6549;53.128;8.182;2023-01-15T17:09:35;3.03;;;1.35;;
12968;SDS011;6549;53.128;8.182;2023-01-15T17:12:40;3.35;;;1.55;;
12968;SDS011;6549;53.128;8.182;2023-01-15T17:15:42;5.85;;;2.05;;
12968;SDS011;6549;53.128;8.182;2023-01-15T17:18:42;6.50;;;2.00;;
12968;SDS011;6549;53.128;8.182;2023-01-15T17:21:43;4.15;;;1.70;;
12968;SDS011;6549;53.128;8.182;2023-01-15T17:24:46;4.93;;;1.80;;
12968;SDS011;6549;53.128;8.182;2023-01-15T17:27:52;3.97;;;1.70;;
12968;SDS011;6549;53.128;8.182;2023-01-15T17:34:35;6.10;;;2.35;;
12968;SDS011;6549;53.128;8.182;2023-01-15T17:37:35;4.13;;;2.28;;
12968;SDS011;6549;53.128;8.182;2023-01-15T17:40:35;5.00;;;2.30;;
12968;SDS011;6549;53.128;8.182;2023-01-15T17:43:37;5.15;;;2.17;;
12968;SDS011;6549;53.128;8.182;2023-01-15T17:46:37;4.80;;;1.75;;
12968;SDS011;6549;53.128;8.182;2023-01-15T17:49:37;6.90;;;2.22;;
12968;SDS011;6549;53.128;8.182;2023-01-15T17:52:38;8.25;;;2.10;;
12968;SDS011;6549;53.128;8.182;2023-01-15T17:55:38;4.03;;;1.83;;
12968;SDS011;6549;53.128;8.182;2023-01-15T17:58:57;6.82;;;2.08;;
12968;SDS011;6549;53.128;8.182;2023-01-15T18:02:15;5.20;;;2.55;;
12968;SDS011;6549;53.128;8.182;2023-01-15T18:05:35;6.10;;;2.35;;
12968;SDS011;6549;53.128;8.182;2023-01-15T18:08:35;8.48;;;2.47;;
12968;SDS011;6549;53.128;8.182;2023-01-15T18:11:36;5.97;;;2.42;;
12968;SDS011;6549;53.128;8.182;2023-01-15T18:14:37;5.88;;;2.38;;
12968;SDS011;6549;53.128;8.182;2023-01-15T18:17:37;6.30;;;2.35;;
12968;SDS011;6549;53.128;8.182;2023-01-15T18:20:37;7.72;;;2.85;;
12968;SDS011;6549;53.128;8.182;2023-01-15T18:23:38;11.88;;;3.88;;
12968;SDS011;6549;53.128;8.182;2023-01-15T18:26:39;6.50;;;2.78;;
12968;SDS011;6549;53.128;8.182;2023-01-15T18:29:40;9.37;;;3.00;;
12968;SDS011;6549;53.128;8.182;2023-01-15T18:32:40;5.95;;;2.20;;
12968;SDS011;6549;53.128;8.182;2023-01-15T18:35:42;7.80;;;2.80;;
12968;SDS011;6549;53.128;8.182;2023-01-15T18:38:42;12.02;;;4.47;;
12968;SDS011;6549;53.128;8.182;2023-01-15T18:41:43;9.65;;;2.05;;
12968;SDS011;6549;53.128;8.182;2023-01-15T18:44:43;5.32;;;2.10;;
12968;SDS011;6549;53.128;8.182;2023-01-15T18:48:02;6.80;;;1.92;;
12968;SDS011;6549;53.128;8.182;2023-01-15T18:51:06;5.53;;;2.42;;
12968;SDS011;6549;53.128;8.182;2023-01-15T18:54:08;7.07;;;1.90;;
12968;SDS011;6549;53.128;8.182;2023-01-15T18:57:09;4.75;;;1.98;;
12968;SDS011;6549;53.128;8.182;2023-01-15T19:00:09;6.85;;;1.77;;
12968;SDS011;6549;53.128;8.182;2023-01-15T19:03:11;6.32;;;2.00;;
12968;SDS011;6549;53.128;8.182;2023-01-15T19:06:11;3.15;;;1.60;;
12968;SDS011;6549;53.128;8.182;2023-01-15T19:09:12;6.28;;;1.90;;
12968;SDS011;6549;53.128;8.182;2023-01-15T19:12:15;6.85;;;2.00;;
12968;SDS011;6549;53.128;8.182;2023-01-15T19:15:16;4.72;;;2.10;;
12968;SDS011;6549;53.128;8.182;2023-01-15T19:18:36;4.93;;;2.28;;
12968;SDS011;6549;53.128;8.182;2023-01-15T19:21:51;4.85;;;2.35;;
12968;SDS011;6549;53.128;8.182;2023-01-15T19:25:11;7.03;;;2.28;;
12968;SDS011;6549;53.128;8.182;2023-01-15T19:28:12;9.15;;;2.00;;
12968;SDS011;6549;53.128;8.182;2023-01-15T19:31:16;5.90;;;2.35;;
12968;SDS011;6549;53.128;8.182;2023-01-15T19:34:35;10.15;;;2.42;;
12968;SDS011;6549;53.128;8.182;2023-01-15T19:37:36;8.65;;;1.95;;
12968;SDS011;6549;53.128;8.182;2023-01-15T19:40:38;7.75;;;2.72;;
12968;SDS011;6549;53.128;8.182;2023-01-15T19:43:39;8.95;;;2.33;;
12968;SDS011;6549;53.128;8.182;2023-01-15T19:46:58;8.40;;;2.85;;
12968;SDS011;6549;53.128;8.182;2023-01-15T19:50:18;9.32;;;3.47;;
12968;SDS011;6549;53.128;8.182;2023-01-15T19:53:21;6.05;;;2.85;;
12968;SDS011;6549;53.128;8.182;2023-01-15T19:56:21;6.05;;;2.70;;
12968;SDS011;6549;53.128;8.182;2023-01-15T19:59:22;6.90;;;2.63;;
12968;SDS011;6549;53.128;8.182;2023-01-15T20:02:22;4.78;;;2.40;;
12968;SDS011;6549;53.128;8.182;2023-01-15T20:05:23;6.35;;;2.47;;
12968;SDS011;6549;53.128;8.182;2023-01-15T20:08:25;4.43;;;2.33;;
12968;SDS011;6549;53.128;8.182;2023-01-15T20:11:26;4.53;;;2.72;;
12968;SDS011;6549;53.128;8.182;2023-01-15T20:14:46;5.43;;;2.13;;
12968;SDS011;6549;53.128;8.182;2023-01-15T20:17:47;4.90;;;1.88;;
12968;SDS011;6549;53.128;8.182;2023-01-15T20:20:47;4.03;;;2.20;;
12968;SDS011;6549;53.128;8.182;2023-01-15T20:23:48;5.38;;;3.28;;
12968;SDS011;6549;53.128;8.182;2023-01-15T20:26:48;4.38;;;2.67;;
12968;SDS011;6549;53.128;8.182;2023-01-15T20:29:48;5.70;;;2.50;;
12968;SDS011;6549;53.128;8.182;2023-01-15T20:32:55;4.25;;;2.45;;
12968;SDS011;6549;53.128;8.182;2023-01-15T20:36:02;4.10;;;2.45;;
12968;SDS011;6549;53.128;8.182;2023-01-15T20:39:03;5.47;;;2.50;;
12968;SDS011;6549;53.128;8.182;2023-01-15T20:42:03;5.35;;;2.60;;
12968;SDS011;6549;53.128;8.182;2023-01-15T20:45:22;5.47;;;2.30;;
12968;SDS011;6549;53.128;8.182;2023-01-15T20:48:23;6.70;;;2.45;;
12968;SDS011;6549;53.128;8.182;2023-01-15T20:51:42;2.92;;;1.80;;
12968;SDS011;6549;53.128;8.182;2023-01-15T20:54:44;4.10;;;2.00;;
12968;SDS011;6549;53.128;8.182;2023-01-15T20:57:44;2.92;;;2.08;;
12968;SDS011;6549;53.128;8.182;2023-01-15T21:00:44;4.07;;;2.20;;
12968;SDS011;6549;53.128;8.182;2023-01-15T21:03:45;3.60;;;2.60;;
12968;SDS011;6549;53.128;8.182;2023-01-15T21:06:45;3.75;;;2.67;;
12968;SDS011;6549;53.128;8.182;2023-01-15T21:09:45;4.30;;;2.58;;
12968;SDS011;6549;53.128;8.182;2023-01-15T21:12:46;4.90;;;3.00;;
12968;SDS011;6549;53.128;8.182;2023-01-15T21:15:51;5.10;;;3.10;;
12968;SDS011;6549;53.128;8.182;2023-01-15T21:18:56;5.47;;;3.50;;